Time;durP1;ratioP1;P1;durP2;ratioP2;P2;SDS_P1;SDS_P2;PMS_P1;PMS_P2;Temp;Humidity;BMP_temperature;BMP_pressure;BME280_temperature;BME280_humidity;BME280_pressure;Samples;Min_cycle;Max_cycle;Signal;HPM_P1;HPM_P2
2020/12/22 00:01:52;;;;;;;0.88;0.88;;;10.70;98.70;;;;;;5007071;28;20208;-81
2020/12/22 00:04:19;;;;;;;1.38;0.85;;;10.80;98.20;;;;;;5004413;28;20234;-82
2020/12/22 00:06:46;;;;;;;0.88;0.70;;;10.90;97.40;;;;;;5007435;28;20207;-81
2020/12/22 00:09:13;;;;;;;1.15;0.77;;;10.90;96.50;;;;;;5015947;28;20228;-83
2020/12/22 00:11:39;;;;;;;0.73;0.73;;;11.00;96.00;;;;;;5020060;28;20219;-82
2020/12/22 00:14:05;;;;;;;1.35;1.00;;;11.00;95.50;;;;;;5020121;28;20193;-82
2020/12/22 00:16:36;;;;;;;0.70;0.70;;;11.00;95.30;;;;;;5019799;28;20209;-82
2020/12/22 00:19:02;;;;;;;0.80;0.77;;;11.10;94.80;;;;;;5015464;28;20303;-81
2020/12/22 00:21:31;;;;;;;0.98;0.73;;;11.10;94.60;;;;;;5013105;28;20251;-81
2020/12/22 00:23:59;;;;;;;0.80;0.80;;;11.20;94.20;;;;;;5008567;28;20206;-82
2020/12/22 00:26:25;;;;;;;0.77;0.75;;;11.20;93.70;;;;;;5005791;28;20274;-83
2020/12/22 00:28:52;;;;;;;1.13;0.80;;;11.30;93.40;;;;;;5007775;28;20267;-82
2020/12/22 00:31:18;;;;;;;0.90;0.90;;;11.30;93.00;;;;;;5009938;28;20219;-82
2020/12/22 00:33:45;;;;;;;0.75;0.50;;;11.30;92.30;;;;;;5006252;28;20586;-81
2020/12/22 00:36:11;;;;;;;0.90;0.90;;;11.30;92.00;;;;;;5006442;28;20239;-82
2020/12/22 00:38:38;;;;;;;0.73;0.70;;;11.40;91.80;;;;;;5006130;28;20263;-82
2020/12/22 00:41:05;;;;;;;0.65;0.65;;;11.50;91.50;;;;;;5006467;28;20241;-80
2020/12/22 00:43:32;;;;;;;0.70;0.70;;;11.50;90.90;;;;;;5006753;28;20237;-82
2020/12/22 00:45:58;;;;;;;0.68;0.68;;;11.50;90.80;;;;;;5006443;28;20339;-81
2020/12/22 00:48:25;;;;;;;1.67;0.70;;;11.50;90.50;;;;;;5007022;28;20236;-83
2020/12/22 00:50:51;;;;;;;1.77;0.70;;;11.50;90.20;;;;;;5014725;28;20196;-82
2020/12/22 00:53:17;;;;;;;0.70;0.70;;;11.50;90.20;;;;;;5017874;28;20224;-81
2020/12/22 00:55:45;;;;;;;0.40;0.40;;;11.50;90.00;;;;;;5012200;28;20208;-83
2020/12/22 00:58:12;;;;;;;0.65;0.65;;;11.50;89.70;;;;;;5006893;28;20211;-83
2020/12/22 01:00:39;;;;;;;1.58;0.75;;;11.60;89.00;;;;;;5013989;28;20220;-81
2020/12/22 01:03:06;;;;;;;1.25;0.80;;;11.60;88.50;;;;;;5015188;28;20220;-82
2020/12/22 01:05:33;;;;;;;0.80;0.80;;;11.60;87.80;;;;;;5010774;28;20201;-82
2020/12/22 01:08:01;;;;;;;0.45;0.45;;;11.70;87.20;;;;;;5004025;28;20244;-82
2020/12/22 01:10:27;;;;;;;1.25;0.52;;;11.70;86.70;;;;;;5007163;28;20236;-82
2020/12/22 01:12:54;;;;;;;1.13;0.50;;;11.70;86.20;;;;;;5012993;28;20611;-81
2020/12/22 01:15:21;;;;;;;0.50;0.50;;;11.80;86.40;;;;;;5005945;28;20704;-82
2020/12/22 01:17:48;;;;;;;0.57;0.57;;;11.80;85.10;;;;;;5003928;28;20232;-81
2020/12/22 01:20:14;;;;;;;0.50;0.50;;;11.90;84.00;;;;;;5003012;28;20249;-81
2020/12/22 01:22:41;;;;;;;0.40;0.40;;;11.90;83.30;;;;;;5003411;28;20281;-81
2020/12/22 01:25:07;;;;;;;0.85;0.60;;;12.00;83.20;;;;;;5003817;28;20241;-82
2020/12/22 01:27:34;;;;;;;0.50;0.50;;;12.00;82.30;;;;;;5003278;28;20268;-81
2020/12/22 01:30:00;;;;;;;0.40;0.40;;;12.10;81.90;;;;;;5003571;28;20691;-80
2020/12/22 01:32:27;;;;;;;1.58;0.50;;;12.20;81.90;;;;;;5003950;28;20749;-82
2020/12/22 01:34:54;;;;;;;0.60;0.50;;;12.20;80.90;;;;;;5003654;28;20244;-81
2020/12/22 01:37:20;;;;;;;0.38;0.38;;;12.30;80.10;;;;;;5004413;28;20277;-81
2020/12/22 01:39:47;;;;;;;0.57;0.40;;;12.40;80.50;;;;;;5004281;28;20226;-81
2020/12/22 01:42:13;;;;;;;1.23;0.60;;;12.40;80.60;;;;;;5004335;28;20383;-83
2020/12/22 01:44:40;;;;;;;0.40;0.40;;;12.40;80.90;;;;;;5004725;28;20293;-81
2020/12/22 01:47:06;;;;;;;0.30;0.30;;;12.40;81.00;;;;;;5007359;28;20273;-82
2020/12/22 01:49:33;;;;;;;0.88;0.38;;;12.40;80.50;;;;;;5013229;28;20669;-81
2020/12/22 01:52:00;;;;;;;0.45;0.45;;;12.50;80.20;;;;;;5010284;28;20212;-82
2020/12/22 01:54:27;;;;;;;0.30;0.30;;;12.50;80.30;;;;;;5014693;28;20669;-82
2020/12/22 01:56:55;;;;;;;0.35;0.35;;;12.40;81.60;;;;;;5014773;28;20202;-82
2020/12/22 01:59:22;;;;;;;0.77;0.50;;;12.40;83.50;;;;;;5014715;28;20237;-80
2020/12/22 02:01:50;;;;;;;0.57;0.40;;;12.30;86.00;;;;;;5015925;28;20244;-81
2020/12/22 02:04:17;;;;;;;0.30;0.30;;;12.20;86.70;;;;;;5017706;28;20205;-80
2020/12/22 02:06:44;;;;;;;0.88;0.40;;;12.20;86.70;;;;;;5016738;28;20266;-82
2020/12/22 02:09:11;;;;;;;0.52;0.40;;;12.30;85.80;;;;;;5017654;28;20222;-81
2020/12/22 02:11:39;;;;;;;1.52;0.40;;;12.30;85.30;;;;;;5008718;28;20256;-81
2020/12/22 02:14:07;;;;;;;0.55;0.40;;;12.30;86.80;;;;;;5012725;28;20233;-80
2020/12/22 02:16:34;;;;;;;0.70;0.40;;;12.20;88.70;;;;;;5015081;28;20197;-80
2020/12/22 02:19:01;;;;;;;0.40;0.40;;;12.10;90.20;;;;;;5015659;28;20220;-81
2020/12/22 02:21:28;;;;;;;0.60;0.50;;;12.10;90.20;;;;;;5015726;28;20200;-81
2020/12/22 02:23:55;;;;;;;1.55;0.40;;;12.10;90.10;;;;;;5016947;28;20198;-80
2020/12/22 02:26:22;;;;;;;0.47;0.40;;;12.20;89.80;;;;;;5015598;28;20214;-79
2020/12/22 02:28:49;;;;;;;0.50;0.50;;;12.10;90.20;;;;;;5016104;28;20269;-80
2020/12/22 02:31:15;;;;;;;0.50;0.40;;;12.10;90.50;;;;;;5014127;28;20224;-80
2020/12/22 02:33:41;;;;;;;1.50;0.50;;;12.10;90.50;;;;;;5015638;28;20200;-80
2020/12/22 02:36:09;;;;;;;0.45;0.45;;;12.10;91.10;;;;;;5011099;28;20206;-80
2020/12/22 02:38:36;;;;;;;0.40;0.40;;;12.00;91.90;;;;;;5004896;28;20229;-82
2020/12/22 02:41:03;;;;;;;0.40;0.30;;;12.00;92.10;;;;;;5003955;28;20246;-80
2020/12/22 02:43:30;;;;;;;0.50;0.50;;;12.10;92.10;;;;;;5003224;28;20216;-82
2020/12/22 02:45:56;;;;;;;0.47;0.40;;;12.10;92.10;;;;;;5003360;28;20300;-81
2020/12/22 02:48:23;;;;;;;0.35;0.35;;;12.10;91.90;;;;;;5003338;28;20346;-82
2020/12/22 02:50:49;;;;;;;0.70;0.45;;;12.10;92.10;;;;;;5003229;28;20205;-81
2020/12/22 02:53:16;;;;;;;1.90;0.55;;;12.10;92.10;;;;;;5004065;28;20209;-81
2020/12/22 02:55:43;;;;;;;0.40;0.40;;;12.10;92.10;;;;;;5005297;28;20277;-82
2020/12/22 02:58:09;;;;;;;0.30;0.30;;;12.10;92.10;;;;;;5003945;28;20345;-81
2020/12/22 03:00:36;;;;;;;0.38;0.38;;;12.10;92.10;;;;;;5004996;28;20250;-82
2020/12/22 03:03:02;;;;;;;0.50;0.50;;;12.10;92.10;;;;;;5004886;28;20583;-82
2020/12/22 03:05:29;;;;;;;0.50;0.50;;;12.10;92.10;;;;;;5005380;28;20205;-81
2020/12/22 03:07:56;;;;;;;0.30;0.30;;;12.10;92.10;;;;;;5005183;28;20218;-81
2020/12/22 03:10:22;;;;;;;0.40;0.40;;;12.10;92.10;;;;;;5006097;28;20256;-81
2020/12/22 03:12:50;;;;;;;0.40;0.40;;;12.10;92.40;;;;;;5007865;28;20243;-83
2020/12/22 03:15:16;;;;;;;0.38;0.38;;;12.10;92.40;;;;;;5007641;28;20262;-82
2020/12/22 03:17:43;;;;;;;1.27;0.47;;;12.10;92.20;;;;;;5005870;28;20206;-83
2020/12/22 03:20:11;;;;;;;1.15;0.35;;;12.10;92.10;;;;;;5006928;28;20816;-80
2020/12/22 03:22:39;;;;;;;0.45;0.40;;;12.20;91.40;;;;;;5008104;28;20277;-81
2020/12/22 03:25:07;;;;;;;0.73;0.60;;;12.30;90.70;;;;;;5006391;28;20233;-80
2020/12/22 03:27:34;;;;;;;0.57;0.40;;;12.40;89.90;;;;;;5008276;28;20211;-82
2020/12/22 03:30:01;;;;;;;0.52;0.52;;;12.40;89.00;;;;;;5007073;28;20221;-82
2020/12/22 03:32:28;;;;;;;0.50;0.50;;;12.40;88.80;;;;;;5008061;28;20205;-81
2020/12/22 03:34:54;;;;;;;0.30;0.30;;;12.50;88.50;;;;;;5007940;28;20205;-80
2020/12/22 03:37:21;;;;;;;0.50;0.50;;;12.50;87.20;;;;;;5009514;28;20264;-80
2020/12/22 03:39:48;;;;;;;0.40;0.40;;;12.50;87.00;;;;;;5015159;28;20466;-80
2020/12/22 03:42:15;;;;;;;0.45;0.45;;;12.50;87.00;;;;;;5015965;28;20228;-81
2020/12/22 03:44:42;;;;;;;0.98;0.50;;;12.50;87.00;;;;;;5016218;28;20194;-80
2020/12/22 03:47:09;;;;;;;0.40;0.32;;;12.50;87.00;;;;;;5015941;28;20202;-80
2020/12/22 03:49:36;;;;;;;0.52;0.52;;;12.60;86.10;;;;;;5016168;28;20243;-80
2020/12/22 03:52:02;;;;;;;0.30;0.30;;;12.60;85.00;;;;;;5015946;28;20220;-80
2020/12/22 03:54:29;;;;;;;0.55;0.50;;;12.70;84.20;;;;;;5015913;28;20203;-81
2020/12/22 03:56:55;;;;;;;0.35;0.35;;;12.70;83.70;;;;;;5015913;28;20210;-80
2020/12/22 03:59:22;;;;;;;0.57;0.50;;;12.70;83.80;;;;;;5015534;28;20226;-82
2020/12/22 04:01:50;;;;;;;0.30;0.30;;;12.70;84.00;;;;;;5015220;28;20221;-82
2020/12/22 04:04:19;;;;;;;0.65;0.30;;;12.60;85.30;;;;;;5012221;28;20216;-82
2020/12/22 04:06:46;;;;;;;0.82;0.40;;;12.60;86.20;;;;;;5013282;28;20201;-80
2020/12/22 04:09:12;;;;;;;0.40;0.40;;;12.60;86.70;;;;;;5009413;28;20273;-81
2020/12/22 04:11:40;;;;;;;0.63;0.40;;;12.70;86.60;;;;;;5004624;28;20252;-81
2020/12/22 04:14:07;;;;;;;0.30;0.30;;;12.60;87.00;;;;;;5007669;28;20414;-82
2020/12/22 04:16:33;;;;;;;0.45;0.45;;;12.70;87.10;;;;;;5007496;28;20223;-80
2020/12/22 04:19:00;;;;;;;0.40;0.38;;;12.60;87.00;;;;;;5012708;28;20233;-82
2020/12/22 04:21:27;;;;;;;0.40;0.40;;;12.70;87.10;;;;;;5015674;28;20220;-80
2020/12/22 04:23:54;;;;;;;0.35;0.30;;;12.70;87.10;;;;;;5013896;28;20213;-82
2020/12/22 04:26:21;;;;;;;0.32;0.30;;;12.70;87.20;;;;;;5003730;28;20759;-83
2020/12/22 04:28:48;;;;;;;0.52;0.40;;;12.60;88.30;;;;;;5013624;28;20226;-80
2020/12/22 04:31:15;;;;;;;1.65;0.32;;;12.70;89.00;;;;;;5016256;28;20221;-80
2020/12/22 04:33:41;;;;;;;0.47;0.40;;;12.60;89.50;;;;;;5016436;28;20245;-80
2020/12/22 04:36:08;;;;;;;0.30;0.30;;;12.60;90.30;;;;;;5015313;28;20209;-80
2020/12/22 04:38:36;;;;;;;0.40;0.40;;;12.60;90.40;;;;;;5010843;28;20245;-82
2020/12/22 04:41:05;;;;;;;4.43;0.60;;;12.60;90.80;;;;;;5002846;28;20678;-82
2020/12/22 04:43:32;;;;;;;0.40;0.30;;;12.50;91.60;;;;;;5006088;28;20665;-81
2020/12/22 04:46:04;;;;;;;0.35;0.35;;;12.50;92.30;;;;;;5005074;28;20267;-80
2020/12/22 04:48:35;;;;;;;0.85;0.40;;;12.50;93.00;;;;;;5004496;28;20257;-82
2020/12/22 04:51:03;;;;;;;0.45;0.35;;;12.50;93.60;;;;;;5008998;28;20223;-81
2020/12/22 04:53:31;;;;;;;0.40;0.40;;;12.50;94.10;;;;;;5003782;28;20272;-81
2020/12/22 04:55:59;;;;;;;0.55;0.30;;;12.40;94.60;;;;;;5007651;28;20217;-81
2020/12/22 04:58:28;;;;;;;0.40;0.38;;;12.40;95.10;;;;;;5008454;28;20271;-82
2020/12/22 05:00:55;;;;;;;0.30;0.30;;;12.30;95.60;;;;;;5015570;28;20214;-81
2020/12/22 05:03:23;;;;;;;1.48;0.60;;;12.40;95.90;;;;;;5010001;28;20205;-81
2020/12/22 05:05:50;;;;;;;1.42;0.40;;;12.30;95.80;;;;;;5008023;28;20305;-82
2020/12/22 05:08:17;;;;;;;2.30;0.52;;;12.30;96.40;;;;;;5009305;28;20251;-81
2020/12/22 05:10:44;;;;;;;0.30;0.30;;;12.30;96.40;;;;;;5013845;28;20221;-80
2020/12/22 05:13:11;;;;;;;0.52;0.50;;;12.40;95.90;;;;;;5018046;28;20192;-80
2020/12/22 05:15:41;;;;;;;0.77;0.35;;;12.40;95.90;;;;;;5018155;28;20199;-80
2020/12/22 05:18:08;;;;;;;0.30;0.30;;;12.40;95.90;;;;;;5017083;28;20413;-80
2020/12/22 05:20:35;;;;;;;0.40;0.40;;;12.40;95.90;;;;;;5017381;28;20256;-81
2020/12/22 05:23:02;;;;;;;0.50;0.30;;;12.50;94.60;;;;;;5018540;28;20193;-81
2020/12/22 05:25:29;;;;;;;0.47;0.40;;;12.50;93.50;;;;;;5018610;28;20196;-81
2020/12/22 05:27:56;;;;;;;0.47;0.47;;;12.60;93.20;;;;;;5018250;28;20224;-80
2020/12/22 05:30:23;;;;;;;0.77;0.50;;;12.60;92.70;;;;;;5017401;28;20229;-82
2020/12/22 05:32:51;;;;;;;1.52;0.50;;;12.60;92.80;;;;;;5011160;28;20598;-81
2020/12/22 05:35:18;;;;;;;0.30;0.30;;;12.60;92.90;;;;;;5012201;28;20198;-82
2020/12/22 05:37:47;;;;;;;0.40;0.40;;;12.60;92.70;;;;;;5015421;28;20252;-82
2020/12/22 05:40:14;;;;;;;0.40;0.40;;;12.70;92.40;;;;;;5013767;28;20235;-82
2020/12/22 05:42:47;;;;;;;3.05;0.45;;;12.80;91.60;;;;;;5010867;28;20209;-83
2020/12/22 05:45:14;;;;;;;1.50;0.50;;;12.80;90.90;;;;;;5000409;28;20213;-82
2020/12/22 05:47:41;;;;;;;0.43;0.40;;;12.80;90.50;;;;;;5000720;28;20237;-81
2020/12/22 05:50:08;;;;;;;0.95;0.52;;;12.80;90.60;;;;;;5003889;28;20265;-83
2020/12/22 05:52:34;;;;;;;0.30;0.30;;;12.80;90.80;;;;;;5003195;28;20210;-82
2020/12/22 05:55:00;;;;;;;0.50;0.43;;;12.80;91.20;;;;;;5006660;28;20198;-82
2020/12/22 05:57:30;;;;;;;0.70;0.45;;;12.80;91.10;;;;;;5008107;28;20206;-82
2020/12/22 05:59:58;;;;;;;0.88;0.40;;;12.80;91.40;;;;;;5005041;28;20284;-83
2020/12/22 06:02:27;;;;;;;0.40;0.40;;;12.80;91.50;;;;;;5014398;28;20194;-81
2020/12/22 06:04:57;;;;;;;2.63;0.43;;;12.80;91.50;;;;;;5010461;28;20209;-81
2020/12/22 06:07:24;;;;;;;0.40;0.30;;;12.80;90.80;;;;;;5009227;28;20333;-82
2020/12/22 06:09:50;;;;;;;0.47;0.47;;;12.90;89.30;;;;;;5004208;28;20282;-81
2020/12/22 06:12:18;;;;;;;0.47;0.40;;;13.00;87.40;;;;;;5002592;28;20213;-81
2020/12/22 06:14:46;;;;;;;0.52;0.50;;;13.20;83.40;;;;;;4999004;28;20289;-80
2020/12/22 06:17:13;;;;;;;1.05;0.30;;;13.30;81.30;;;;;;4999487;28;20225;-80
2020/12/22 06:19:41;;;;;;;0.40;0.40;;;13.40;79.40;;;;;;5001945;28;20541;-81
2020/12/22 06:22:11;;;;;;;0.43;0.40;;;13.50;78.60;;;;;;5001735;28;20234;-82
2020/12/22 06:24:38;;;;;;;0.60;0.38;;;13.50;77.70;;;;;;5000612;28;20264;-80
2020/12/22 06:27:07;;;;;;;0.40;0.40;;;13.60;77.00;;;;;;5003052;28;20221;-81
2020/12/22 06:29:35;;;;;;;0.40;0.40;;;13.60;76.20;;;;;;5004652;28;20241;-81
2020/12/22 06:32:23;;;;;;;0.95;0.40;;;13.60;76.30;;;;;;5004347;28;20210;-82
2020/12/22 06:34:51;;;;;;;0.38;0.38;;;13.60;76.10;;;;;;5000255;28;20206;-81
2020/12/22 06:37:21;;;;;;;0.30;0.30;;;13.60;76.20;;;;;;5001868;28;20221;-81
2020/12/22 06:39:49;;;;;;;0.40;0.40;;;13.60;76.70;;;;;;5001712;28;20235;-81
2020/12/22 06:42:43;;;;;;;0.50;0.40;;;13.60;77.20;;;;;;5004718;28;20217;-81
2020/12/22 06:45:26;;;;;;;1.67;0.30;;;13.50;79.50;;;;;;4999351;28;20202;-81
2020/12/22 06:47:53;;;;;;;0.30;0.30;;;13.40;81.40;;;;;;4999353;28;20230;-82
2020/12/22 06:50:39;;;;;;;1.50;0.30;;;13.30;83.50;;;;;;4999799;28;20273;-81
2020/12/22 06:53:07;;;;;;;0.43;0.43;;;13.20;84.90;;;;;;5003832;28;20293;-80
2020/12/22 06:55:50;;;;;;;0.47;0.47;;;13.20;86.30;;;;;;5009000;28;20213;-80
2020/12/22 06:58:37;;;;;;;0.50;0.40;;;13.10;87.80;;;;;;5009557;28;20218;-81
2020/12/22 07:01:29;;;;;;;0.40;0.40;;;13.00;90.70;;;;;;5002448;28;20264;-81
2020/12/22 07:04:14;;;;;;;0.40;0.40;;;12.90;91.70;;;;;;5001169;28;20202;-81
2020/12/22 07:06:51;;;;;;;0.40;0.40;;;12.80;93.10;;;;;;5002264;28;20669;-81
2020/12/22 07:09:20;;;;;;;0.55;0.30;;;12.80;94.70;;;;;;5002879;28;20230;-82
2020/12/22 07:11:47;;;;;;;0.70;0.30;;;12.70;96.00;;;;;;5004368;28;20209;-84
2020/12/22 07:14:18;;;;;;;0.75;0.40;;;12.60;97.50;;;;;;5002991;28;20243;-82
2020/12/22 07:16:51;;;;;;;0.40;0.40;;;12.50;98.80;;;;;;5000560;28;20245;-81
2020/12/22 07:19:23;;;;;;;1.02;0.40;;;12.50;99.60;;;;;;4999026;28;20681;-81
2020/12/22 07:21:51;;;;;;;0.82;0.40;;;12.40;99.90;;;;;;5004586;28;20233;-81
2020/12/22 07:24:18;;;;;;;0.40;0.40;;;12.40;99.90;;;;;;5004785;28;20273;-82
2020/12/22 07:26:46;;;;;;;0.60;0.60;;;12.30;99.90;;;;;;5004416;28;20273;-80
2020/12/22 07:29:13;;;;;;;0.57;0.57;;;12.30;99.90;;;;;;5003901;28;20232;-82
2020/12/22 07:31:43;;;;;;;0.52;0.50;;;12.30;99.90;;;;;;5001465;28;20203;-82
2020/12/22 07:34:10;;;;;;;0.70;0.70;;;12.30;99.90;;;;;;5001395;28;20212;-82
2020/12/22 07:36:37;;;;;;;0.77;0.52;;;12.30;99.90;;;;;;5001554;28;20275;-81
2020/12/22 07:39:21;;;;;;;0.45;0.45;;;12.20;99.90;;;;;;5005301;28;20235;-81
2020/12/22 07:41:49;;;;;;;0.30;0.30;;;12.20;99.90;;;;;;5005178;28;20210;-82
2020/12/22 07:44:17;;;;;;;1.55;0.68;;;12.20;99.90;;;;;;4999239;28;20202;-82
2020/12/22 07:46:45;;;;;;;0.43;0.43;;;12.20;99.90;;;;;;5000361;28;20241;-81
2020/12/22 07:49:13;;;;;;;1.70;0.40;;;12.20;99.90;;;;;;5011587;28;20236;-81
2020/12/22 07:51:44;;;;;;;0.52;0.30;;;12.20;99.90;;;;;;5006040;28;20213;-81
2020/12/22 07:54:11;;;;;;;0.50;0.40;;;12.30;99.90;;;;;;5005259;28;20303;-82
2020/12/22 07:56:39;;;;;;;0.50;0.40;;;12.20;99.90;;;;;;5005198;28;20263;-84
2020/12/22 07:59:08;;;;;;;0.68;0.60;;;12.20;99.90;;;;;;5005862;28;20246;-84
2020/12/22 08:01:42;;;;;;;7.68;1.27;;;12.20;99.90;;;;;;5007135;28;20223;-80
2020/12/22 08:04:13;;;;;;;1.30;0.52;;;12.20;99.90;;;;;;5007178;28;20269;-82
2020/12/22 08:06:39;;;;;;;2.47;0.90;;;12.20;99.90;;;;;;5000954;28;20413;-82
2020/12/22 08:09:06;;;;;;;2.30;0.70;;;12.20;99.90;;;;;;5005945;28;20635;-83
2020/12/22 08:11:33;;;;;;;0.50;0.50;;;12.20;99.90;;;;;;5007750;28;20229;-83
2020/12/22 08:14:03;;;;;;;1.40;0.70;;;12.20;99.90;;;;;;5009072;28;20204;-83
2020/12/22 08:16:33;;;;;;;5.25;0.98;;;12.20;99.90;;;;;;5013506;28;20204;-84
2020/12/22 08:19:01;;;;;;;0.75;0.50;;;12.20;99.90;;;;;;5008654;28;20240;-82
2020/12/22 08:21:29;;;;;;;0.77;0.55;;;12.20;99.90;;;;;;5006754;28;20222;-82
2020/12/22 08:23:57;;;;;;;0.80;0.60;;;12.20;99.90;;;;;;5011968;28;20213;-82
2020/12/22 08:26:24;;;;;;;0.60;0.60;;;12.20;99.90;;;;;;5012628;28;20240;-81
2020/12/22 08:28:52;;;;;;;0.40;0.40;;;12.30;99.90;;;;;;5012558;28;20236;-84
2020/12/22 08:31:23;;;;;;;6.93;0.80;;;12.30;99.90;;;;;;5011499;28;20267;-83
2020/12/22 08:33:55;;;;;;;1.30;0.60;;;12.30;99.90;;;;;;5011109;28;20231;-83
2020/12/22 08:36:22;;;;;;;0.47;0.45;;;12.30;99.90;;;;;;5011010;28;20283;-83
2020/12/22 08:38:49;;;;;;;1.95;0.80;;;12.30;99.90;;;;;;5009085;28;20432;-83
2020/12/22 08:41:18;;;;;;;1.48;0.70;;;12.30;99.90;;;;;;5010684;28;20233;-84
2020/12/22 08:43:49;;;;;;;3.03;0.70;;;12.30;99.90;;;;;;5010920;28;20213;-83
2020/12/22 08:46:17;;;;;;;0.68;0.52;;;12.40;99.90;;;;;;5016957;28;20185;-83
2020/12/22 08:48:45;;;;;;;5.97;1.20;;;12.40;99.90;;;;;;5019050;28;20229;-83
2020/12/22 08:51:11;;;;;;;1.00;0.60;;;12.40;99.90;;;;;;5020400;28;20194;-84
2020/12/22 08:53:49;;;;;;;1.15;0.95;;;12.40;99.90;;;;;;5020175;28;20202;-83
2020/12/22 08:56:16;;;;;;;0.55;0.55;;;12.30;99.90;;;;;;5019185;28;20201;-83
2020/12/22 08:58:56;;;;;;;0.80;0.70;;;12.30;99.90;;;;;;5010451;28;20312;-85
2020/12/22 09:01:24;;;;;;;1.00;0.98;;;12.30;99.90;;;;;;5017425;28;20189;-86
2020/12/22 09:03:54;;;;;;;0.60;0.60;;;12.30;99.90;;;;;;5018348;28;20233;-86
2020/12/22 09:06:33;;;;;;;1.05;0.70;;;12.30;99.90;;;;;;5017320;28;20209;-84
2020/12/22 09:09:00;;;;;;;3.75;0.70;;;12.30;99.90;;;;;;5011715;28;20273;-83
2020/12/22 09:11:27;;;;;;;1.58;0.80;;;12.30;99.90;;;;;;5010261;28;20224;-83
2020/12/22 09:14:15;;;;;;;2.30;0.75;;;12.30;99.90;;;;;;5010310;28;20215;-86
2020/12/22 09:16:56;;;;;;;2.17;0.70;;;12.30;99.90;;;;;;5009363;28;20217;-85
2020/12/22 09:19:28;;;;;;;0.88;0.60;;;12.30;99.90;;;;;;5017122;28;20230;-84
2020/12/22 09:22:02;;;;;;;2.60;1.15;;;12.30;99.90;;;;;;5013959;28;20201;-83
2020/12/22 09:24:31;;;;;;;3.72;0.70;;;12.40;99.90;;;;;;5011013;28;20220;-82
2020/12/22 09:27:06;;;;;;;2.65;0.80;;;12.40;99.90;;;;;;5017485;28;20229;-85
2020/12/22 09:29:33;;;;;;;0.95;0.73;;;12.40;99.90;;;;;;5019682;28;20229;-86
2020/12/22 09:32:00;;;;;;;1.85;0.95;;;12.50;99.90;;;;;;5019865;28;20217;-87
2020/12/22 09:34:30;;;;;;;4.65;0.70;;;12.50;99.90;;;;;;5019243;28;20200;-85
2020/12/22 09:36:59;;;;;;;8.77;2.05;;;12.50;99.90;;;;;;5019253;28;20190;-84
2020/12/22 09:39:27;;;;;;;1.85;0.70;;;12.50;99.90;;;;;;5018970;28;20233;-83
2020/12/22 09:42:05;;;;;;;1.05;0.75;;;12.60;99.90;;;;;;5017803;28;20182;-85
2020/12/22 09:44:32;;;;;;;0.90;0.70;;;12.60;99.90;;;;;;5018771;28;20178;-82
2020/12/22 09:46:59;;;;;;;2.72;0.80;;;12.80;99.90;;;;;;5018217;28;20225;-82
2020/12/22 09:49:27;;;;;;;0.65;0.63;;;12.80;99.90;;;;;;5016851;28;20245;-83
2020/12/22 09:51:54;;;;;;;4.15;0.90;;;13.00;99.90;;;;;;5008538;28;20211;-82
2020/12/22 09:54:22;;;;;;;1.20;0.80;;;13.10;99.90;;;;;;5013056;28;20197;-84
2020/12/22 09:56:49;;;;;;;1.85;0.90;;;13.10;99.90;;;;;;5014071;28;20248;-83
2020/12/22 09:59:16;;;;;;;2.15;0.70;;;13.20;99.90;;;;;;5015855;28;20230;-84
2020/12/22 10:01:42;;;;;;;1.05;0.60;;;13.10;99.90;;;;;;5018936;28;20190;-83
2020/12/22 10:04:12;;;;;;;4.65;1.15;;;13.10;99.90;;;;;;5019060;28;20194;-86
2020/12/22 10:06:41;;;;;;;5.70;1.42;;;13.10;99.90;;;;;;5018724;28;20213;-85
2020/12/22 10:09:08;;;;;;;4.03;0.80;;;13.10;99.90;;;;;;5018937;28;20310;-85
2020/12/22 10:11:36;;;;;;;0.90;0.63;;;13.10;99.90;;;;;;5018212;28;20221;-86
2020/12/22 10:14:03;;;;;;;0.88;0.60;;;13.10;99.90;;;;;;5018670;28;20186;-82
2020/12/22 10:16:30;;;;;;;0.70;0.70;;;13.10;99.90;;;;;;5018305;28;20235;-82
2020/12/22 10:18:57;;;;;;;2.58;0.70;;;13.00;99.90;;;;;;5018882;28;20221;-82
2020/12/22 10:21:23;;;;;;;3.45;1.05;;;13.00;99.90;;;;;;5018601;28;20194;-81
2020/12/22 10:23:52;;;;;;;1.00;0.70;;;13.00;99.90;;;;;;5018202;28;20201;-82
2020/12/22 10:26:21;;;;;;;0.60;0.60;;;12.90;99.90;;;;;;5017969;28;20237;-83
2020/12/22 10:28:49;;;;;;;1.38;0.60;;;12.90;99.90;;;;;;5018131;28;20221;-83
2020/12/22 10:31:17;;;;;;;2.05;0.90;;;12.90;99.90;;;;;;5018251;28;20214;-82
2020/12/22 10:33:47;;;;;;;4.13;0.77;;;12.90;99.90;;;;;;5017735;28;20206;-83
2020/12/22 10:36:14;;;;;;;0.60;0.60;;;12.90;99.90;;;;;;5014459;28;20186;-83
2020/12/22 10:38:41;;;;;;;0.90;0.70;;;12.90;99.90;;;;;;5009590;28;20218;-83
2020/12/22 10:41:09;;;;;;;1.67;0.80;;;12.90;99.90;;;;;;5003769;28;20873;-82
2020/12/22 10:43:35;;;;;;;0.65;0.65;;;13.00;99.90;;;;;;5003738;28;20246;-82
2020/12/22 10:46:03;;;;;;;2.80;0.57;;;13.00;99.90;;;;;;5004951;28;20213;-84
2020/12/22 10:48:30;;;;;;;0.95;0.80;;;13.10;99.40;;;;;;5003535;28;20259;-84
2020/12/22 10:50:57;;;;;;;2.60;0.65;;;13.10;98.60;;;;;;5003999;28;20206;-83
2020/12/22 10:53:25;;;;;;;0.70;0.70;;;13.10;98.70;;;;;;5006757;28;20209;-83
2020/12/22 10:55:52;;;;;;;0.70;0.70;;;13.10;98.40;;;;;;5006715;28;20213;-84
2020/12/22 10:58:19;;;;;;;5.03;0.82;;;13.10;98.50;;;;;;5008973;28;20229;-82
2020/12/22 11:00:47;;;;;;;3.15;1.17;;;13.00;98.90;;;;;;5016756;28;20204;-84
2020/12/22 11:03:17;;;;;;;7.07;1.30;;;13.00;98.90;;;;;;5017841;28;20205;-83
2020/12/22 11:08:28;;;;;;;5.28;0.70;;;13.10;97.80;;;;;;5017601;28;20257;-84
2020/12/22 11:10:55;;;;;;;1.48;0.50;;;13.10;97.40;;;;;;5016973;28;20198;-82
2020/12/22 11:13:22;;;;;;;3.05;0.95;;;13.20;96.60;;;;;;5014799;28;20225;-84
2020/12/22 11:15:49;;;;;;;1.20;0.60;;;13.20;96.20;;;;;;5016158;28;20216;-86
2020/12/22 11:18:16;;;;;;;1.08;0.75;;;13.30;96.20;;;;;;5017512;28;20194;-85
2020/12/22 11:20:42;;;;;;;0.50;0.50;;;13.30;95.60;;;;;;5017754;28;20209;-84
2020/12/22 11:23:09;;;;;;;2.47;0.70;;;13.30;95.80;;;;;;5017961;28;20190;-85
2020/12/22 11:25:35;;;;;;;0.90;0.80;;;13.30;96.10;;;;;;5017578;28;20217;-85
2020/12/22 11:28:02;;;;;;;1.52;0.73;;;13.30;96.20;;;;;;5017477;28;20228;-84
2020/12/22 11:30:29;;;;;;;0.70;0.70;;;13.30;96.20;;;;;;5017221;28;20222;-84
2020/12/22 11:32:55;;;;;;;0.80;0.63;;;13.30;96.80;;;;;;5017102;28;20193;-86
2020/12/22 11:35:22;;;;;;;1.00;0.70;;;13.30;97.20;;;;;;5017501;28;20190;-88
2020/12/22 11:37:49;;;;;;;0.85;0.70;;;13.20;97.60;;;;;;5017360;28;20221;-87
2020/12/22 11:40:16;;;;;;;0.75;0.75;;;13.20;98.20;;;;;;5016757;28;20304;-85
2020/12/22 11:42:43;;;;;;;0.70;0.70;;;13.20;99.10;;;;;;5015245;28;20204;-87
2020/12/22 11:45:10;;;;;;;0.75;0.70;;;13.10;99.70;;;;;;5015460;28;20228;-83
2020/12/22 11:47:37;;;;;;;2.55;0.90;;;13.10;99.90;;;;;;5015480;28;20209;-85
2020/12/22 11:50:04;;;;;;;1.42;1.02;;;13.10;99.90;;;;;;5016822;28;20221;-89
2020/12/22 11:52:30;;;;;;;0.77;0.77;;;13.10;99.90;;;;;;5017634;28;20197;-85
2020/12/22 11:55:00;;;;;;;1.08;0.80;;;13.00;99.90;;;;;;5016921;28;20711;-81
2020/12/22 11:57:26;;;;;;;1.77;0.70;;;13.10;99.90;;;;;;5015348;28;20190;-86
2020/12/22 11:59:56;;;;;;;0.77;0.77;;;13.00;99.90;;;;;;5015925;28;20224;-85
2020/12/22 12:02:22;;;;;;;2.17;0.88;;;13.00;99.90;;;;;;5014484;28;20244;-84
2020/12/22 12:04:49;;;;;;;0.95;0.85;;;13.10;99.90;;;;;;5019272;28;20228;-85
2020/12/22 12:07:16;;;;;;;1.05;0.90;;;13.20;99.90;;;;;;5020235;28;20194;-84
2020/12/22 12:09:42;;;;;;;2.75;1.02;;;13.20;99.90;;;;;;5020526;28;20300;-86
2020/12/22 12:15:54;;;;;;;1.38;1.10;;;13.20;99.90;;;;;;4898960;29;20277;-85
2020/12/22 12:18:20;;;;;;;1.08;0.98;;;13.30;99.90;;;;;;4953649;29;20217;-83
2020/12/22 12:20:48;;;;;;;1.10;0.98;;;13.40;99.90;;;;;;4954664;29;20212;-82
2020/12/22 12:23:18;;;;;;;1.00;0.95;;;13.40;99.90;;;;;;4956694;29;20218;-85
2020/12/22 12:25:45;;;;;;;1.77;0.80;;;13.40;99.90;;;;;;4956685;29;20243;-84
2020/12/22 12:28:12;;;;;;;4.20;0.98;;;13.40;99.90;;;;;;4960467;29;20375;-85
2020/12/22 12:30:38;;;;;;;0.88;0.88;;;13.40;99.90;;;;;;4961031;28;20299;-87
2020/12/22 12:33:05;;;;;;;0.95;0.88;;;13.30;99.90;;;;;;4961521;28;20216;-88
2020/12/22 12:35:32;;;;;;;20.63;1.83;;;13.30;99.90;;;;;;4960828;28;20209;-86
2020/12/22 12:38:00;;;;;;;7.07;1.38;;;13.30;99.90;;;;;;4961122;28;20224;-84
2020/12/22 12:40:27;;;;;;;24.70;2.75;;;13.30;99.90;;;;;;4961519;28;20208;-87
2020/12/22 12:42:53;;;;;;;2.22;1.23;;;13.30;99.90;;;;;;4958127;28;20208;-84
2020/12/22 12:45:20;;;;;;;1.13;0.80;;;13.30;99.90;;;;;;4953823;29;20214;-83
2020/12/22 12:47:46;;;;;;;5.25;1.00;;;13.30;99.90;;;;;;4956646;29;20218;-85
2020/12/22 12:50:13;;;;;;;5.25;1.00;;;13.30;99.90;;;;;;4974925;28;20229;-86
2020/12/22 12:52:39;;;;;;;3.72;1.08;;;13.40;99.90;;;;;;5020323;28;20207;-84
2020/12/22 12:55:07;;;;;;;1.92;1.00;;;13.40;99.90;;;;;;5019697;28;20202;-87
2020/12/22 12:57:34;;;;;;;1.15;0.98;;;13.40;99.90;;;;;;5018890;28;20321;-83
2020/12/22 13:00:00;;;;;;;3.65;1.10;;;13.30;99.90;;;;;;5018715;28;20273;-84